Time;durP1;ratioP1;P1;durP2;ratioP2;P2;SDS_P1;SDS_P2;PMS_P1;PMS_P2;Temp;Humidity;BMP_temperature;BMP_pressure;BME280_temperature;BME280_humidity;BME280_pressure;Samples;Min_cycle;Max_cycle;Signal;HPM_P1;HPM_P2
2022/11/23 04:55:04;;;;;;;10.93;6.32;;;;;;;3.18;100.00;98969.75;5857205;28;20472;-84
2022/11/23 04:58:09;;;;;;;12.75;6.32;;;;;;;3.11;100.00;98971.44;5237363;34;33607;-86
2022/11/23 05:01:13;;;;;;;11.90;6.43;;;;;;;3.14;100.00;98976.41;5237776;34;34187;-84
2022/11/23 05:04:18;;;;;;;11.40;6.10;;;;;;;3.19;100.00;98982.06;5237624;34;33739;-86
2022/11/23 05:07:22;;;;;;;10.75;6.22;;;;;;;3.14;100.00;98973.75;5224437;34;34104;-84
2022/11/23 05:10:26;;;;;;;12.55;6.12;;;;;;;3.12;100.00;98968.59;5238316;34;34210;-85
2022/11/23 05:13:30;;;;;;;9.50;6.22;;;;;;;3.10;100.00;98962.63;5237644;33;33711;-84
2022/11/23 05:16:33;;;;;;;9.23;5.90;;;;;;;3.10;100.00;98969.75;5237328;34;35036;-85
2022/11/23 05:19:36;;;;;;;12.88;7.10;;;;;;;3.11;100.00;98976.75;5237828;33;34425;-84
2022/11/23 05:22:39;;;;;;;8.55;6.05;;;;;;;3.16;100.00;98974.44;5237667;34;33745;-86
2022/11/23 05:25:42;;;;;;;12.63;6.20;;;;;;;3.09;100.00;98965.44;5238957;34;34042;-84
2022/11/23 05:28:46;;;;;;;11.77;5.90;;;;;;;3.10;100.00;98967.94;5238956;33;33900;-85
2022/11/23 05:31:48;;;;;;;9.93;5.60;;;;;;;3.19;100.00;98955.47;5237692;34;34554;-85
2022/11/23 05:34:55;;;;;;;9.40;5.57;;;;;;;3.11;100.00;98956.28;5237302;33;35101;-86
2022/11/23 05:37:59;;;;;;;10.13;5.35;;;;;;;3.16;100.00;98943.34;5238132;34;34267;-84
2022/11/23 05:41:03;;;;;;;8.88;5.55;;;;;;;3.14;100.00;98937.34;5238159;34;34535;-84
2022/11/23 05:44:05;;;;;;;12.73;6.87;;;;;;;3.23;100.00;98946.16;5237221;33;33546;-84
2022/11/23 05:47:08;;;;;;;12.18;6.55;;;;;;;3.26;100.00;98952.97;5237170;34;34729;-85
2022/11/23 05:50:12;;;;;;;13.98;6.97;;;;;;;3.29;100.00;98942.84;5237614;34;34069;-84
2022/11/23 05:53:15;;;;;;;14.55;7.80;;;;;;;3.35;100.00;98944.81;5237421;34;33570;-85
2022/11/23 05:56:18;;;;;;;13.45;6.53;;;;;;;3.34;100.00;98937.84;5237819;34;33530;-89
2022/11/23 05:59:23;;;;;;;15.20;6.60;;;;;;;3.27;100.00;98936.84;5237501;34;34649;-89
2022/11/23 06:02:26;;;;;;;14.75;7.10;;;;;;;3.33;100.00;98944.16;5237294;34;34201;-89
2022/11/23 06:05:29;;;;;;;11.57;6.35;;;;;;;3.32;100.00;98942.50;5236612;33;34096;-85
2022/11/23 06:08:32;;;;;;;11.18;7.03;;;;;;;3.34;100.00;98939.69;5238205;34;33322;-86
2022/11/23 06:11:35;;;;;;;8.93;6.10;;;;;;;3.36;100.00;98945.66;5238727;33;33645;-86
2022/11/23 06:14:39;;;;;;;11.23;6.05;;;;;;;3.27;100.00;98955.47;5237502;34;33810;-86
2022/11/23 06:17:41;;;;;;;16.67;6.85;;;;;;;3.30;100.00;98968.44;5237386;34;34222;-86
2022/11/23 06:20:45;;;;;;;11.07;6.22;;;;;;;3.30;100.00;98964.94;5237093;34;33433;-86
2022/11/23 06:23:48;;;;;;;13.00;6.93;;;;;;;3.26;100.00;98972.44;5236225;33;33682;-86
2022/11/23 06:26:51;;;;;;;14.18;6.15;;;;;;;3.26;100.00;98968.94;5225513;34;33870;-86
2022/11/23 06:29:54;;;;;;;11.85;6.55;;;;;;;3.25;100.00;98960.12;5226410;34;32318;-86
2022/11/23 06:33:02;;;;;;;9.18;5.93;;;;;;;3.28;100.00;98961.62;5226447;34;31841;-86
2022/11/23 06:36:08;;;;;;;10.90;5.93;;;;;;;3.34;100.00;98967.13;5241113;34;33621;-86
2022/11/23 06:39:12;;;;;;;9.80;5.82;;;;;;;3.25;100.00;98981.41;5241679;34;33898;-85
2022/11/23 06:42:15;;;;;;;9.45;5.78;;;;;;;3.24;100.00;98984.22;5240300;34;32169;-86
2022/11/23 06:45:38;;;;;;;15.93;6.20;;;;;;;3.27;100.00;98984.72;5236384;34;34819;-86
2022/11/23 06:48:43;;;;;;;11.90;6.15;;;;;;;3.40;100.00;98974.44;5225503;34;31903;-85
2022/11/23 06:51:47;;;;;;;16.05;6.70;;;;;;;3.36;100.00;98978.44;5242843;34;34057;-85
2022/11/23 06:54:50;;;;;;;13.05;6.65;;;;;;;3.37;100.00;98976.59;5240417;33;33909;-86
2022/11/23 06:59:58;;;;;;;12.45;6.60;;;;;;;4.06;100.00;98977.00;5594033;31;323359;-86
2022/11/23 07:03:02;;;;;;;11.43;6.35;;;;;;;4.06;100.00;98977.00;5582164;32;33938;-86
2022/11/23 07:06:07;;;;;;;13.18;6.85;;;;;;;3.60;100.00;98974.91;5581805;31;34044;-86
2022/11/23 07:09:10;;;;;;;12.35;6.93;;;;;;;3.65;100.00;98979.72;5582248;31;34448;-86
2022/11/23 07:12:13;;;;;;;10.80;6.60;;;;;;;3.61;100.00;98986.38;5581862;31;33598;-86
2022/11/23 07:15:16;;;;;;;11.15;6.18;;;;;;;3.57;100.00;98998.38;5581867;31;33204;-86
2022/11/23 07:18:19;;;;;;;13.48;6.47;;;;;;;3.50;100.00;98992.88;5581862;31;34618;-86
2022/11/23 07:21:22;;;;;;;10.98;6.50;;;;;;;3.55;100.00;98990.56;5580133;31;32198;-86
2022/11/23 07:24:25;;;;;;;13.62;6.93;;;;;;;3.58;100.00;98989.38;5579760;31;33620;-85
2022/11/23 07:27:28;;;;;;;11.25;6.15;;;;;;;3.56;100.00;98989.53;5581098;32;33937;-86
2022/11/23 07:30:33;;;;;;;11.68;6.57;;;;;;;3.53;100.00;98997.03;5580921;32;33470;-86
2022/11/23 07:33:35;;;;;;;12.93;6.70;;;;;;;3.54;100.00;98996.88;5582932;31;34096;-86
2022/11/23 07:36:38;;;;;;;10.25;5.57;;;;;;;3.49;100.00;98995.72;5582353;31;34175;-86
2022/11/23 07:39:41;;;;;;;9.32;6.28;;;;;;;3.49;100.00;98996.53;5581048;31;32176;-85
2022/11/23 07:43:01;;;;;;;9.30;5.60;;;;;;;3.48;100.00;98994.03;5581440;31;33558;-85
2022/11/23 07:46:04;;;;;;;10.38;5.80;;;;;;;3.48;100.00;99000.22;5581285;31;33920;-86
2022/11/23 07:49:06;;;;;;;8.65;5.62;;;;;;;3.57;100.00;98993.06;5581518;31;34323;-86
2022/11/23 07:52:09;;;;;;;9.73;5.37;;;;;;;3.58;100.00;98995.53;5581982;32;33771;-86
2022/11/23 07:55:11;;;;;;;10.25;5.82;;;;;;;3.49;100.00;98996.53;5579287;31;32062;-85
2022/11/23 07:58:14;;;;;;;8.82;5.45;;;;;;;3.44;100.00;99004.19;5580169;31;33476;-85
2022/11/23 08:01:18;;;;;;;9.95;5.80;;;;;;;3.54;100.00;98998.69;5579517;32;33440;-86
2022/11/23 08:04:22;;;;;;;9.23;5.47;;;;;;;3.64;100.00;99004.69;5580754;31;34527;-85
2022/11/23 08:07:24;;;;;;;9.50;5.40;;;;;;;3.65;100.00;99001.00;5582518;31;33808;-85
2022/11/23 08:10:28;;;;;;;12.43;6.18;;;;;;;3.65;100.00;99001.00;5570561;32;33916;-85
2022/11/23 08:13:33;;;;;;;7.85;5.53;;;;;;;3.77;100.00;99001.50;5567690;32;34339;-85
2022/11/23 08:16:36;;;;;;;10.40;5.32;;;;;;;3.82;100.00;99005.31;5568208;32;33433;-85
2022/11/23 08:19:39;;;;;;;10.00;5.15;;;;;;;3.80;100.00;99001.16;5568221;32;34606;-85
2022/11/23 08:22:41;;;;;;;8.23;5.40;;;;;;;3.78;100.00;99006.66;5566746;32;34071;-85
2022/11/23 08:25:44;;;;;;;9.20;5.72;;;;;;;3.95;100.00;99014.62;5568490;32;33484;-89
2022/11/23 08:28:48;;;;;;;8.18;5.60;;;;;;;3.92;100.00;99017.63;5570098;32;33476;-89
2022/11/23 08:31:51;;;;;;;8.02;5.62;;;;;;;3.99;100.00;99013.31;5573308;32;34458;-90
2022/11/23 08:34:54;;;;;;;9.35;5.65;;;;;;;4.01;100.00;99013.97;5573897;32;33912;-89
2022/11/23 08:37:57;;;;;;;10.25;6.07;;;;;;;4.04;100.00;99008.31;5571849;32;34197;-86
2022/11/23 08:41:11;;;;;;;9.43;5.47;;;;;;;4.16;100.00;99014.09;5571532;32;33345;-85
2022/11/23 08:44:14;;;;;;;9.25;5.50;;;;;;;4.13;100.00;99011.78;5567419;32;35339;-85
2022/11/23 08:47:18;;;;;;;9.38;5.82;;;;;;;4.11;100.00;99011.13;5566413;32;35026;-85
2022/11/23 08:50:21;;;;;;;8.80;5.47;;;;;;;4.11;100.00;99011.94;5567876;32;34398;-85
2022/11/23 08:53:24;;;;;;;9.98;6.18;;;;;;;4.12;100.00;99013.59;5567705;32;33861;-85
2022/11/23 08:56:26;;;;;;;10.13;6.12;;;;;;;4.15;100.00;99015.09;5567412;32;34268;-85
2022/11/23 08:59:29;;;;;;;8.80;5.32;;;;;;;4.11;100.00;99019.09;5566605;32;34185;-85
2022/11/23 09:02:32;;;;;;;12.37;5.75;;;;;;;4.07;100.00;99021.28;5567172;32;33883;-85
2022/11/23 09:05:37;;;;;;;12.13;5.25;;;;;;;4.07;100.00;99022.09;5567807;32;33594;-85
2022/11/23 09:08:40;;;;;;;7.30;4.85;;;;;;;4.13;100.00;99030.44;5568729;32;33738;-85
2022/11/23 09:11:43;;;;;;;8.05;4.85;;;;;;;4.09;100.00;99027.25;5569012;32;34427;-85
2022/11/23 09:14:45;;;;;;;8.38;5.00;;;;;;;4.00;100.00;99030.94;5570055;32;33838;-86
2022/11/23 09:17:48;;;;;;;10.50;4.78;;;;;;;4.02;100.00;99032.44;5567019;32;32490;-86
2022/11/23 09:20:50;;;;;;;11.18;5.62;;;;;;;4.01;100.00;99027.28;5565965;32;33365;-86
2022/11/23 09:23:55;;;;;;;9.05;5.03;;;;;;;3.97;100.00;99024.09;5569122;32;33950;-86
2022/11/23 09:26:58;;;;;;;8.13;4.80;;;;;;;3.96;100.00;99025.13;5567042;32;32475;-89
2022/11/23 09:30:01;;;;;;;9.43;5.55;;;;;;;4.00;100.00;99022.94;5567526;32;34676;-86
2022/11/23 09:33:04;;;;;;;8.88;5.20;;;;;;;3.97;100.00;99018.78;5567536;32;33591;-85
2022/11/23 09:36:07;;;;;;;7.72;5.10;;;;;;;4.06;100.00;99022.25;5566788;32;33759;-84
2022/11/23 09:39:10;;;;;;;8.15;5.55;;;;;;;4.01;100.00;99022.78;5565183;32;33037;-86
2022/11/23 09:42:48;;;;;;;9.05;5.32;;;;;;;4.04;100.00;99018.97;5566320;32;32287;-86
2022/11/23 09:45:56;;;;;;;8.65;5.03;;;;;;;4.14;100.00;99018.75;5561875;32;32334;-86
2022/11/23 09:49:11;;;;;;;9.57;5.15;;;;;;;4.08;100.00;99020.28;5567417;32;33570;-86
2022/11/23 09:52:17;;;;;;;9.02;5.53;;;;;;;4.03;100.00;99015.44;5563689;32;32009;-84
2022/11/23 09:55:38;;;;;;;8.60;5.10;;;;;;;3.99;100.00;99019.44;5563250;32;33493;-83
2022/11/23 09:58:41;;;;;;;12.73;5.97;;;;;;;4.06;100.00;99014.28;5563467;32;33711;-83
2022/11/23 10:01:44;;;;;;;7.45;5.15;;;;;;;4.09;100.00;99019.25;5566509;32;33867;-85
2022/11/23 10:04:51;;;;;;;8.98;4.87;;;;;;;4.13;100.00;99015.28;5561823;32;32111;-85
2022/11/23 10:08:20;;;;;;;8.48;5.18;;;;;;;4.11;100.00;99021.75;5565805;32;33466;-85
2022/11/23 10:11:27;;;;;;;8.83;4.73;;;;;;;4.16;100.00;99017.59;5556588;32;33861;-85
2022/11/23 10:14:54;;;;;;;7.10;5.10;;;;;;;4.20;100.00;99016.25;5566279;32;33904;-84
2022/11/23 10:18:03;;;;;;;7.95;5.22;;;;;;;4.16;100.00;99032.75;5565712;32;34453;-85
2022/11/23 10:21:47;;;;;;;9.63;5.35;;;;;;;4.15;100.00;99023.06;5565895;32;33819;-84
2022/11/23 10:24:52;;;;;;;10.52;4.80;;;;;;;4.17;100.00;99016.59;5479051;32;32903;-84
2022/11/23 10:27:59;;;;;;;7.65;4.47;;;;;;;4.10;100.00;99012.94;5571289;32;34787;-84
2022/11/23 10:31:13;;;;;;;4.75;4.05;;;;;;;4.16;100.00;99004.28;5571331;32;33902;-84
2022/11/23 10:34:23;;;;;;;7.45;4.80;;;;;;;4.21;100.00;99006.41;5570633;32;33913;-87
2022/11/23 10:37:25;;;;;;;8.27;4.62;;;;;;;4.19;100.00;99006.59;5570262;32;33996;-90
2022/11/23 10:40:28;;;;;;;7.20;5.20;;;;;;;4.25;100.00;99008.56;5566452;32;33792;-86
2022/11/23 10:43:40;;;;;;;7.20;4.55;;;;;;;4.28;100.00;99007.41;5564951;32;33370;-86
2022/11/23 10:46:43;;;;;;;7.22;4.68;;;;;;;4.29;100.00;99004.56;5566403;32;33698;-86
2022/11/23 10:50:20;;;;;;;7.05;4.70;;;;;;;4.32;100.00;99006.88;5565930;32;33924;-85
2022/11/23 10:53:25;;;;;;;10.05;4.40;;;;;;;4.35;100.00;99015.53;5563097;32;33765;-85
2022/11/23 10:56:28;;;;;;;6.53;4.65;;;;;;;4.32;100.00;99008.72;5566010;32;33807;-86
2022/11/23 10:59:35;;;;;;;8.63;4.70;;;;;;;4.32;100.00;99011.38;5567328;32;33813;-85
2022/11/23 11:02:50;;;;;;;6.43;4.50;;;;;;;4.26;100.00;99020.88;5565819;32;33440;-86
2022/11/23 11:05:56;;;;;;;8.82;4.72;;;;;;;4.37;100.00;99016.22;5566845;32;34822;-85
2022/11/23 11:09:20;;;;;;;6.62;4.68;;;;;;;4.36;100.00;99011.84;5558663;32;34030;-86
2022/11/23 11:12:23;;;;;;;9.25;4.62;;;;;;;4.38;100.00;99009.87;5564216;32;33624;-85
2022/11/23 11:15:25;;;;;;;6.70;4.78;;;;;;;4.44;100.00;99006.50;5562710;32;33775;-85
2022/11/23 11:18:34;;;;;;;9.88;5.07;;;;;;;4.32;100.00;99009.53;5565876;32;35090;-86
2022/11/23 11:21:40;;;;;;;8.85;4.93;;;;;;;4.35;100.00;99008.38;5563638;32;33656;-85
2022/11/23 11:24:45;;;;;;;7.43;4.75;;;;;;;4.28;100.00;99008.22;5566149;32;33824;-85
2022/11/23 11:27:52;;;;;;;6.83;4.67;;;;;;;4.33;100.00;98994.41;5565983;32;32292;-85
2022/11/23 11:30:55;;;;;;;9.30;5.68;;;;;;;4.36;100.00;99002.06;5565570;32;33849;-86
2022/11/23 11:34:24;;;;;;;9.05;5.28;;;;;;;4.43;100.00;99005.69;5566293;32;33716;-86
2022/11/23 11:37:47;;;;;;;7.12;5.05;;;;;;;4.48;100.00;98999.84;5566301;32;33871;-85
2022/11/23 11:40:51;;;;;;;7.68;5.20;;;;;;;4.44;100.00;98998.50;5565397;32;33855;-86
2022/11/23 11:44:03;;;;;;;7.05;5.35;;;;;;;4.55;100.00;99001.63;5564961;32;34164;-85
2022/11/23 11:47:26;;;;;;;8.45;4.97;;;;;;;4.63;100.00;99002.63;5569202;32;32226;-86
2022/11/23 11:50:40;;;;;;;7.87;4.97;;;;;;;4.68;100.00;99003.75;5562304;32;34560;-85
2022/11/23 11:54:07;;;;;;;9.13;5.18;;;;;;;4.73;100.00;99000.56;5562798;32;34868;-85
2022/11/23 11:57:32;;;;;;;7.65;5.15;;;;;;;4.83;100.00;99000.34;5564517;32;35062;-86
2022/11/23 12:00:38;;;;;;;6.93;5.00;;;;;;;4.79;100.00;99005.19;5562564;32;34262;-86
2022/11/23 12:03:55;;;;;;;6.57;4.60;;;;;;;4.76;100.00;99008.19;5564500;32;32925;-86
2022/11/23 12:07:06;;;;;;;8.07;5.03;;;;;;;4.73;100.00;98997.88;5568631;32;32284;-90
2022/11/23 12:10:32;;;;;;;7.25;4.87;;;;;;;4.81;100.00;99000.53;5568602;32;33712;-86
2022/11/23 12:13:39;;;;;;;8.73;5.10;;;;;;;4.82;100.00;99007.50;5568688;32;34038;-86
2022/11/23 12:17:05;;;;;;;7.05;4.50;;;;;;;4.81;100.00;99010.37;5564455;32;33822;-85
2022/11/23 12:20:46;;;;;;;8.15;4.95;;;;;;;4.86;100.00;99010.69;5576010;32;34532;-85
2022/11/23 12:24:19;;;;;;;9.85;5.12;;;;;;;4.87;100.00;99007.00;5572018;32;34649;-86
2022/11/23 12:27:40;;;;;;;7.50;5.00;;;;;;;4.88;100.00;99003.31;5568294;32;32297;-86
2022/11/23 12:31:12;;;;;;;8.25;4.45;;;;;;;4.97;100.00;99010.25;5573681;32;33633;-89
2022/11/23 12:34:36;;;;;;;6.60;4.87;;;;;;;5.07;100.00;99007.38;5569574;32;35491;-86
2022/11/23 12:38:13;;;;;;;6.22;4.28;;;;;;;5.12;100.00;99008.53;5568309;32;33728;-85
2022/11/23 12:41:21;;;;;;;7.70;4.45;;;;;;;5.10;100.00;99002.53;5568432;32;34640;-86
2022/11/23 12:44:48;;;;;;;6.30;4.57;;;;;;;5.17;100.00;99007.97;5569264;32;33950;-85
2022/11/23 12:47:54;;;;;;;6.62;4.53;;;;;;;5.17;100.00;98995.47;5564736;32;32215;-86
2022/11/23 12:51:10;;;;;;;7.03;4.45;;;;;;;5.26;100.00;98992.75;5567273;32;33693;-85
2022/11/23 12:54:19;;;;;;;4.95;3.95;;;;;;;5.20;100.00;98991.59;5560578;31;34286;-85
2022/11/23 12:57:37;;;;;;;6.22;4.53;;;;;;;5.11;100.00;98998.84;5567327;32;33637;-85
2022/11/23 13:01:02;;;;;;;6.10;4.37;;;;;;;5.09;100.00;99000.88;5565413;32;33668;-85
2022/11/23 13:04:36;;;;;;;9.88;4.80;;;;;;;5.13;100.00;98999.50;5563983;31;33888;-86
2022/11/23 13:08:06;;;;;;;7.18;4.00;;;;;;;5.14;100.00;99003.81;5567134;32;33591;-85
2022/11/23 13:11:28;;;;;;;7.30;4.55;;;;;;;5.18;100.00;98996.31;5560761;32;32565;-85
2022/11/23 13:14:58;;;;;;;7.80;4.60;;;;;;;5.07;100.00;99000.22;5566064;32;34501;-85
2022/11/23 13:18:35;;;;;;;6.53;4.37;;;;;;;5.07;100.00;99002.87;5566496;32;33796;-85
2022/11/23 13:21:42;;;;;;;5.82;4.12;;;;;;;5.13;100.00;99007.50;5562953;32;34593;-85
2022/11/23 13:25:02;;;;;;;6.60;4.20;;;;;;;5.17;100.00;99013.31;5561487;32;32717;-90
2022/11/23 13:28:29;;;;;;;9.43;4.60;;;;;;;5.14;100.00;99014.50;5560858;31;33921;-86
2022/11/23 13:31:34;;;;;;;5.93;4.12;;;;;;;5.19;100.00;99021.97;5566082;32;33789;-85
2022/11/23 13:34:45;;;;;;;7.05;4.87;;;;;;;5.21;100.00;99026.13;5566045;32;32292;-85
2022/11/23 13:37:54;;;;;;;7.40;4.10;;;;;;;5.17;100.00;99026.66;5566931;32;32184;-86
2022/11/23 13:40:57;;;;;;;13.57;4.80;;;;;;;5.09;100.00;99022.22;5565313;32;34220;-85
2022/11/23 13:44:24;;;;;;;8.95;4.70;;;;;;;5.03;100.00;99019.41;5565172;32;32936;-86
2022/11/23 13:47:27;;;;;;;6.28;4.37;;;;;;;5.06;100.00;99025.22;5565403;31;34378;-85
2022/11/23 13:50:31;;;;;;;8.27;5.10;;;;;;;4.97;100.00;99024.44;5567296;32;33823;-86
2022/11/23 13:53:38;;;;;;;6.50;4.20;;;;;;;4.97;100.00;99027.13;5571502;32;34230;-86
2022/11/23 13:56:42;;;;;;;7.43;4.80;;;;;;;4.95;100.00;99030.97;5564275;32;33449;-85
2022/11/23 13:59:45;;;;;;;6.70;4.47;;;;;;;4.93;100.00;99020.44;5562603;32;32454;-86
2022/11/23 14:02:47;;;;;;;9.38;4.85;;;;;;;4.98;100.00;99019.94;5562795;31;34116;-86
2022/11/23 14:06:00;;;;;;;8.23;4.90;;;;;;;5.04;100.00;99027.22;5564067;32;33817;-85
2022/11/23 14:09:16;;;;;;;5.50;4.25;;;;;;;5.10;100.00;99023.84;5564971;32;32477;-85
2022/11/23 14:12:46;;;;;;;10.50;5.30;;;;;;;5.12;100.00;99024.53;5566882;32;34334;-86
2022/11/23 14:15:59;;;;;;;6.30;4.40;;;;;;;5.09;100.00;99032.03;5564948;32;34219;-86
2022/11/23 14:19:20;;;;;;;7.70;4.90;;;;;;;5.10;100.00;99029.19;5571976;32;32185;-85
2022/11/23 14:22:43;;;;;;;8.25;4.95;;;;;;;5.14;100.00;99030.50;5571437;32;33925;-85
2022/11/23 14:26:24;;;;;;;6.95;4.65;;;;;;;5.13;100.00;99023.50;5567670;32;33598;-85
2022/11/23 14:29:44;;;;;;;7.47;5.18;;;;;;;5.11;100.00;99025.50;5566842;32;33930;-84
2022/11/23 14:33:15;;;;;;;9.18;4.78;;;;;;;5.02;100.00;99026.56;5562748;32;33516;-84
2022/11/23 14:36:18;;;;;;;10.05;5.12;;;;;;;5.15;100.00;99032.19;5563181;32;34490;-84
2022/11/23 14:39:28;;;;;;;7.80;4.70;;;;;;;5.08;100.00;99031.19;5565594;32;33919;-88
2022/11/23 14:42:42;;;;;;;6.15;4.72;;;;;;;5.08;100.00;99035.72;5565186;32;34278;-90
2022/11/23 14:45:46;;;;;;;8.77;5.00;;;;;;;5.05;100.00;99028.88;5558272;32;33852;-85
2022/11/23 14:48:50;;;;;;;8.75;5.00;;;;;;;5.05;100.00;99036.88;5566793;32;35216;-84
2022/11/23 14:51:54;;;;;;;7.15;4.70;;;;;;;5.04;100.00;99034.41;5565126;32;32080;-85
2022/11/23 14:55:00;;;;;;;7.35;4.87;;;;;;;4.96;100.00;99048.59;5567014;32;33431;-85
2022/11/23 14:58:05;;;;;;;7.12;4.72;;;;;;;5.00;100.00;99036.56;5566301;32;33874;-85
2022/11/23 15:01:17;;;;;;;7.25;5.00;;;;;;;5.08;100.00;99047.19;5566230;32;33796;-85
2022/11/23 15:04:24;;;;;;;8.15;4.87;;;;;;;5.10;100.00;99050.53;5566468;32;34668;-84
2022/11/23 15:07:38;;;;;;;8.38;5.00;;;;;;;5.10;100.00;99050.53;5565775;32;32353;-85
2022/11/23 15:10:49;;;;;;;8.27;5.10;;;;;;;5.04;100.00;99051.25;5566608;32;34350;-85
2022/11/23 15:13:54;;;;;;;10.18;5.37;;;;;;;5.07;100.00;99055.41;5566773;32;34052;-85
2022/11/23 15:17:13;;;;;;;6.55;5.07;;;;;;;5.17;100.00;99064.00;5565985;32;33780;-85
2022/11/23 15:20:15;;;;;;;9.73;5.00;;;;;;;5.17;100.00;99064.81;5567688;32;34206;-85
2022/11/23 15:23:20;;;;;;;8.63;4.87;;;;;;;5.20;100.00;99063.66;5569524;32;33867;-85
2022/11/23 15:26:30;;;;;;;8.85;5.12;;;;;;;5.12;100.00;99069.03;5568743;32;33524;-84
2022/11/23 15:29:58;;;;;;;8.60;5.25;;;;;;;5.10;100.00;99063.87;5567438;32;33065;-84
2022/11/23 15:33:10;;;;;;;12.57;5.35;;;;;;;5.09;100.00;99064.91;5567759;32;34419;-85
2022/11/23 15:36:16;;;;;;;9.80;5.57;;;;;;;5.13;100.00;99068.03;5569706;32;33701;-89
2022/11/23 15:39:22;;;;;;;12.10;6.32;;;;;;;5.18;100.00;99071.00;5569109;32;33765;-90
2022/11/23 15:42:25;;;;;;;10.48;5.35;;;;;;;5.11;100.00;99070.03;5568903;32;34575;-85
2022/11/23 15:45:40;;;;;;;9.82;5.45;;;;;;;5.14;100.00;99069.69;5567700;32;33003;-85
2022/11/23 15:48:48;;;;;;;7.70;4.95;;;;;;;5.15;100.00;99072.19;5569777;32;34585;-85
2022/11/23 15:51:52;;;;;;;8.23;5.57;;;;;;;5.16;100.00;99073.84;5568924;32;33945;-85
2022/11/23 15:54:55;;;;;;;10.05;6.25;;;;;;;5.08;100.00;99065.06;5569302;32;34336;-85
2022/11/23 15:58:00;;;;;;;9.35;5.50;;;;;;;4.98;100.00;99063.44;5568961;32;33925;-85
2022/11/23 16:01:06;;;;;;;13.52;6.28;;;;;;;4.99;100.00;99058.94;5569179;32;34424;-85
2022/11/23 16:04:26;;;;;;;9.77;5.70;;;;;;;4.95;100.00;99066.44;5573332;32;33466;-85
2022/11/23 16:07:29;;;;;;;10.17;5.83;;;;;;;4.97;100.00;99075.12;5582715;32;33893;-85
2022/11/23 16:10:36;;;;;;;9.00;5.53;;;;;;;4.85;100.00;99073.81;5582751;32;34150;-85
2022/11/23 16:13:38;;;;;;;11.75;6.25;;;;;;;4.84;100.00;99087.34;5583870;32;34264;-85
2022/11/23 16:16:44;;;;;;;9.05;5.93;;;;;;;4.93;100.00;99080.97;5569995;32;33916;-85
2022/11/23 16:19:50;;;;;;;9.75;6.00;;;;;;;4.94;100.00;99071.94;5572236;32;33751;-85
2022/11/23 16:22:55;;;;;;;10.43;6.12;;;;;;;4.96;100.00;99077.94;5571695;32;33913;-85
2022/11/23 16:26:01;;;;;;;9.10;6.28;;;;;;;4.96;100.00;99085.94;5569754;32;34054;-85
2022/11/23 16:29:04;;;;;;;11.75;6.25;;;;;;;4.89;100.00;99093.00;5568106;32;33767;-85
2022/11/23 16:32:25;;;;;;;12.30;6.03;;;;;;;4.82;100.00;99089.34;5568373;32;34579;-85
2022/11/23 16:35:28;;;;;;;13.23;6.60;;;;;;;4.85;100.00;99095.16;5571229;32;35152;-85
2022/11/23 16:38:30;;;;;;;16.15;7.20;;;;;;;4.83;100.00;99096.34;5568444;32;34177;-85
2022/11/23 16:41:33;;;;;;;14.57;7.97;;;;;;;4.88;100.00;99093.97;5567895;32;34019;-85
2022/11/23 16:44:36;;;;;;;15.75;8.13;;;;;;;4.91;100.00;99094.44;5569483;32;34027;-86
2022/11/23 16:47:59;;;;;;;16.50;8.43;;;;;;;4.92;100.00;99105.97;5566979;32;32935;-88
2022/11/23 16:51:02;;;;;;;16.27;9.38;;;;;;;4.85;100.00;99107.66;5568774;32;34326;-88
2022/11/23 16:54:05;;;;;;;15.00;8.77;;;;;;;4.85;100.00;99097.81;5568015;32;34500;-89
